createdAt,value
2019-01-25T00:00:43.456Z,28.33
2019-01-25T00:03:33.510Z,26.85
2019-01-25T00:06:16.209Z,27.45
2019-01-25T00:09:27.049Z,26.48
2019-01-25T00:12:10.278Z,24.95
2019-01-25T00:15:00.400Z,26.27
2019-01-25T00:17:43.422Z,25.12
2019-01-25T00:20:33.803Z,27.00
2019-01-25T00:23:16.898Z,25.23
2019-01-25T00:26:07.497Z,29.35
2019-01-25T00:28:52.012Z,25.08
2019-01-25T00:31:41.800Z,25.43
2019-01-25T00:34:26.202Z,23.90
2019-01-25T00:37:16.267Z,24.95
2019-01-25T00:40:05.951Z,24.87
2019-01-25T00:42:50.940Z,25.57
2019-01-25T00:45:33.293Z,26.15
2019-01-25T00:51:49.787Z,24.40
2019-01-25T00:54:39.597Z,25.20
2019-01-25T00:57:22.273Z,27.20
2019-01-25T01:00:31.489Z,25.97
2019-01-25T01:03:16.268Z,25.12
2019-01-25T01:06:06.346Z,25.10
2019-01-25T01:08:49.650Z,25.90
2019-01-25T01:11:39.611Z,26.17
2019-01-25T01:14:20.681Z,26.40
2019-01-25T01:17:10.819Z,27.00
2019-01-25T01:19:53.609Z,26.20
2019-01-25T01:22:43.822Z,26.75
2019-01-25T01:25:28.688Z,24.98
2019-01-25T01:28:18.477Z,28.27
2019-01-25T01:31:03.036Z,25.23
2019-01-25T01:33:53.205Z,25.95
2019-01-25T01:36:36.650Z,26.77
2019-01-25T01:39:26.458Z,24.15
2019-01-25T01:42:09.444Z,25.25
2019-01-25T01:44:59.525Z,25.90
2019-01-25T01:47:40.359Z,24.95
2019-01-25T01:50:30.496Z,26.68
2019-01-25T01:53:13.815Z,26.55
2019-01-25T01:56:04.197Z,25.88
2019-01-25T01:58:48.326Z,24.70
2019-01-25T02:01:38.127Z,25.52
2019-01-25T02:04:20.747Z,24.82
2019-01-25T02:07:10.859Z,26.60
2019-01-25T02:09:55.128Z,26.10
2019-01-25T02:15:46.557Z,26.60
2019-01-25T02:21:38.006Z,27.13
2019-01-25T02:24:28.181Z,25.60
2019-01-25T02:27:11.312Z,27.20
2019-01-25T02:30:01.121Z,25.32
2019-01-25T02:32:43.505Z,27.30
2019-01-25T02:35:33.903Z,26.77
2019-01-25T02:38:18.253Z,26.10
2019-01-25T02:41:08.062Z,24.90
2019-01-25T02:43:51.305Z,26.97
2019-01-25T02:46:41.481Z,24.05
2019-01-25T02:49:25.908Z,25.65
2019-01-25T02:52:15.683Z,26.35
2019-01-25T02:54:58.362Z,26.15
2019-01-25T02:57:48.118Z,26.40
2019-01-25T03:00:30.683Z,26.15
2019-01-25T03:03:20.801Z,26.57
2019-01-25T03:06:05.688Z,26.40
2019-01-25T03:08:55.491Z,25.90
2019-01-25T03:11:38.312Z,26.17
2019-01-25T03:14:28.488Z,25.95
2019-01-25T03:17:10.998Z,24.92
2019-01-25T03:20:01.593Z,29.52
2019-01-25T03:22:45.993Z,27.82
2019-01-25T03:25:35.761Z,27.20
2019-01-25T03:28:19.277Z,27.40
2019-01-25T03:31:09.075Z,25.80
2019-01-25T03:33:51.781Z,26.35
2019-01-25T03:36:41.956Z,27.87
2019-01-25T03:39:26.758Z,27.80
2019-01-25T03:42:17.087Z,27.50
2019-01-25T03:45:00.147Z,28.98
2019-01-25T03:47:50.057Z,27.80
2019-01-25T03:51:02.865Z,27.27
2019-01-25T03:53:52.659Z,27.45
2019-01-25T03:56:37.674Z,29.12
2019-01-25T03:59:28.620Z,27.93
2019-01-25T04:02:11.618Z,27.67
2019-01-25T04:05:01.753Z,28.57
2019-01-25T04:07:44.705Z,29.55
2019-01-25T04:10:34.502Z,27.32
2019-01-25T04:13:18.659Z,28.65
2019-01-25T04:16:08.739Z,29.25
2019-01-25T04:18:53.761Z,28.38
2019-01-25T04:25:12.829Z,26.87
2019-01-25T04:27:56.541Z,27.40
2019-01-25T04:30:40.598Z,27.95
2019-01-25T04:33:30.367Z,28.07
2019-01-25T04:36:16.059Z,28.42
2019-01-25T04:39:26.892Z,28.67
2019-01-25T04:42:09.799Z,28.38
2019-01-25T04:44:59.859Z,27.93
2019-01-25T04:47:42.991Z,28.60
2019-01-25T04:50:33.436Z,28.32
2019-01-25T04:53:16.754Z,28.87
2019-01-25T04:56:06.745Z,28.70
2019-01-25T04:58:49.718Z,29.55
2019-01-25T05:01:39.515Z,27.93
2019-01-25T05:04:22.155Z,27.73
2019-01-25T05:07:12.308Z,28.70
2019-01-25T05:09:54.681Z,29.15
2019-01-25T05:13:05.492Z,29.12
2019-01-25T05:15:48.591Z,28.50
2019-01-25T05:18:38.368Z,29.57
2019-01-25T05:21:23.193Z,30.82
2019-01-25T05:24:12.962Z,29.80
2019-01-25T05:26:57.749Z,29.05
2019-01-25T05:30:08.841Z,30.15
2019-01-25T05:32:51.492Z,28.77
2019-01-25T05:35:41.632Z,30.77
2019-01-25T05:38:24.482Z,29.45
2019-01-25T05:41:14.253Z,27.70
2019-01-25T05:43:56.566Z,30.02
2019-01-25T05:46:46.347Z,32.53
2019-01-25T05:49:30.703Z,30.10
2019-01-25T05:55:49.484Z,27.07
2019-01-25T05:58:39.290Z,30.00
2019-01-25T06:01:29.128Z,30.60
2019-01-25T06:04:11.981Z,31.77
2019-01-25T06:07:01.797Z,30.43
2019-01-25T06:09:46.692Z,31.73
2019-01-25T06:12:36.492Z,27.73
2019-01-25T06:15:19.117Z,29.72
2019-01-25T06:18:08.923Z,30.65
2019-01-25T06:20:52.265Z,29.05
2019-01-25T06:23:42.445Z,28.80
2019-01-25T06:26:26.448Z,28.95
2019-01-25T06:29:16.275Z,29.92
2019-01-25T06:31:59.198Z,30.23
2019-01-25T06:34:49.158Z,30.72
2019-01-25T06:37:32.515Z,30.25
2019-01-25T06:40:15.999Z,30.37
2019-01-25T06:43:06.071Z,29.02
2019-01-25T06:45:49.898Z,29.25
2019-01-25T06:48:40.050Z,28.38
2019-01-25T06:51:22.556Z,27.55
2019-01-25T06:54:12.324Z,27.13
2019-01-25T06:56:54.656Z,28.87
2019-01-25T06:59:44.783Z,28.70
2019-01-25T07:02:29.738Z,28.15
2019-01-25T07:05:19.796Z,30.52
2019-01-25T07:08:02.695Z,30.12
2019-01-25T07:14:20.033Z,29.12
2019-01-25T07:17:10.154Z,28.87
2019-01-25T07:19:54.684Z,30.12
2019-01-25T07:22:44.459Z,30.77
2019-01-25T07:25:28.000Z,31.70
2019-01-25T07:28:18.074Z,32.90
2019-01-25T07:31:01.077Z,30.15
2019-01-25T07:33:50.876Z,30.92
2019-01-25T07:36:35.865Z,29.50
2019-01-25T07:39:19.785Z,31.65
2019-01-25T07:42:09.622Z,38.90
2019-01-25T07:44:52.348Z,34.20
2019-01-25T07:47:42.869Z,34.10
2019-01-25T07:50:25.958Z,31.90
2019-01-25T07:53:15.825Z,32.90
2019-01-25T07:55:59.060Z,32.55
2019-01-25T07:58:48.871Z,32.00
2019-01-25T08:01:31.267Z,32.10
2019-01-25T08:04:21.245Z,33.30
2019-01-25T08:06:51.907Z,32.67
2019-01-25T08:09:41.748Z,32.17
2019-01-25T08:12:26.069Z,32.88
2019-01-25T08:15:36.912Z,33.25
2019-01-25T08:18:20.176Z,30.45
2019-01-25T08:21:10.017Z,34.35
2019-01-25T08:23:52.661Z,32.78
2019-01-25T08:26:42.473Z,33.95
2019-01-25T08:29:28.247Z,28.98
2019-01-25T08:32:16.801Z,32.25
2019-01-25T08:35:00.735Z,32.10
2019-01-25T08:37:43.865Z,32.17
2019-01-25T08:40:33.705Z,28.92
2019-01-25T08:43:18.672Z,28.27
2019-01-25T08:46:08.400Z,29.02
2019-01-25T08:48:50.930Z,28.23
2019-01-25T08:51:41.191Z,28.83
2019-01-25T08:54:44.786Z,29.32
2019-01-25T08:57:34.598Z,29.20
2019-01-25T09:00:20.314Z,38.20
2019-01-25T09:03:10.120Z,35.45
2019-01-25T09:05:52.877Z,35.30
2019-01-25T09:08:42.642Z,33.95
2019-01-25T09:11:25.358Z,33.53
2019-01-25T09:14:15.925Z,32.75
2019-01-25T09:16:59.189Z,34.40
2019-01-25T09:19:49.353Z,33.40
2019-01-25T09:22:31.980Z,31.97
2019-01-25T09:25:21.773Z,31.55
2019-01-25T09:28:04.577Z,35.13
2019-01-25T09:30:54.375Z,32.67
2019-01-25T09:33:36.760Z,31.80
2019-01-25T09:36:19.576Z,29.02
2019-01-25T09:39:09.920Z,25.97
2019-01-25T09:41:54.569Z,27.50
2019-01-25T09:44:44.405Z,31.10
2019-01-25T09:47:27.646Z,35.58
2019-01-25T09:50:38.653Z,35.90
2019-01-25T09:53:21.707Z,35.05
2019-01-25T09:55:52.061Z,32.13
2019-01-25T09:58:42.229Z,34.92
2019-01-25T10:01:32.310Z,34.13
2019-01-25T10:04:14.612Z,35.80
2019-01-25T10:06:57.673Z,30.25
2019-01-25T10:09:47.455Z,30.88
2019-01-25T10:12:34.864Z,31.37
2019-01-25T10:15:43.505Z,31.05
2019-01-25T10:18:27.742Z,29.87
2019-01-25T10:21:17.507Z,31.07
2019-01-25T10:24:00.179Z,27.20
2019-01-25T10:26:50.247Z,26.25
2019-01-25T10:29:32.894Z,26.50
2019-01-25T10:32:22.697Z,26.25
2019-01-25T10:35:07.202Z,25.60
2019-01-25T10:37:56.990Z,25.88
2019-01-25T10:40:39.708Z,23.15
2019-01-25T10:43:29.506Z,25.00
2019-01-25T10:46:14.194Z,23.73
2019-01-25T10:49:03.953Z,22.80
2019-01-25T10:51:44.940Z,24.63
2019-01-25T10:58:02.467Z,22.62
2019-01-25T11:00:52.547Z,21.75
2019-01-25T11:03:42.381Z,19.57
2019-01-25T11:06:27.673Z,21.12
2019-01-25T11:09:10.426Z,21.82
2019-01-25T11:12:00.557Z,20.97
2019-01-25T11:14:43.847Z,21.73
2019-01-25T11:17:36.518Z,20.80
2019-01-25T11:20:38.135Z,19.42
2019-01-25T11:26:30.068Z,20.60
2019-01-25T11:29:20.142Z,20.10
2019-01-25T11:32:02.937Z,18.95
2019-01-25T11:38:19.685Z,19.50
2019-01-25T11:41:09.479Z,20.23
2019-01-25T11:43:59.269Z,20.30
2019-01-25T11:46:42.557Z,19.60
2019-01-25T11:49:32.639Z,17.40
2019-01-25T11:52:15.659Z,17.60
2019-01-25T11:55:26.765Z,19.45
2019-01-25T11:58:09.590Z,17.45
2019-01-25T12:01:18.480Z,19.10
2019-01-25T12:04:01.165Z,18.80
2019-01-25T12:06:50.984Z,18.37
2019-01-25T12:09:35.072Z,18.70
2019-01-25T12:12:25.193Z,19.87
2019-01-25T12:15:10.005Z,19.35
2019-01-25T12:17:59.837Z,19.45
2019-01-25T12:20:43.015Z,20.10
2019-01-25T12:23:33.160Z,21.15
2019-01-25T12:26:16.059Z,20.00
2019-01-25T12:29:06.525Z,21.15
2019-01-25T12:31:49.895Z,21.23
2019-01-25T12:34:39.690Z,21.73
2019-01-25T12:37:24.053Z,21.60
2019-01-25T12:40:35.168Z,21.93
2019-01-25T12:43:23.965Z,22.37
2019-01-25T12:46:10.791Z,20.88
2019-01-25T12:48:55.476Z,22.52
2019-01-25T12:52:08.313Z,21.62
2019-01-25T12:55:08.934Z,21.85
2019-01-25T13:01:07.408Z,23.67
2019-01-25T13:03:57.215Z,24.50
2019-01-25T13:06:38.169Z,24.25
2019-01-25T13:09:21.654Z,22.05
2019-01-25T13:15:38.599Z,24.30
2019-01-25T13:18:28.667Z,20.60
2019-01-25T13:21:13.512Z,22.73
2019-01-25T13:24:03.634Z,22.15
2019-01-25T13:26:46.453Z,22.85
2019-01-25T13:29:36.547Z,21.57
2019-01-25T13:32:19.008Z,23.75
2019-01-25T13:35:10.030Z,23.20
2019-01-25T13:38:12.832Z,23.98
2019-01-25T13:41:02.619Z,23.27
2019-01-25T13:43:45.093Z,23.75
2019-01-25T13:46:35.145Z,23.60
2019-01-25T13:49:19.526Z,24.27
2019-01-25T13:52:09.294Z,23.67
2019-01-25T13:54:52.263Z,26.70
2019-01-25T13:57:42.028Z,25.37
2019-01-25T14:00:27.126Z,26.05
2019-01-25T14:03:16.901Z,24.57
2019-01-25T14:05:59.652Z,24.12
2019-01-25T14:08:49.748Z,26.23
2019-01-25T14:11:32.323Z,25.82
2019-01-25T14:14:22.354Z,26.12
2019-01-25T14:17:05.151Z,25.75
2019-01-25T14:19:55.020Z,24.80
2019-01-25T14:22:37.975Z,28.80
2019-01-25T14:25:27.739Z,28.20
2019-01-25T14:28:08.508Z,25.60
2019-01-25T14:30:58.627Z,28.47
2019-01-25T14:33:42.729Z,25.27
2019-01-25T14:39:59.286Z,25.88
2019-01-25T14:42:49.391Z,27.50
2019-01-25T14:45:32.816Z,27.70
2019-01-25T14:48:22.608Z,26.60
2019-01-25T14:51:03.367Z,35.90
2019-01-25T14:53:53.415Z,36.13
2019-01-25T14:56:36.697Z,32.45
2019-01-25T14:59:26.492Z,29.07
2019-01-25T15:02:08.861Z,28.52
2019-01-25T15:04:58.970Z,27.32
2019-01-25T15:07:43.747Z,30.23
2019-01-25T15:14:02.446Z,27.65
2019-01-25T15:16:51.993Z,28.57
2019-01-25T15:19:41.822Z,27.30
2019-01-25T15:22:24.495Z,27.27
2019-01-25T15:25:14.307Z,25.88
2019-01-25T15:27:56.919Z,26.42
2019-01-25T15:30:47.117Z,25.12
2019-01-25T15:33:30.256Z,27.37
2019-01-25T15:36:20.077Z,27.50
2019-01-25T15:39:01.066Z,27.48
2019-01-25T15:41:44.480Z,27.77
2019-01-25T15:44:36.270Z,30.23
2019-01-25T15:47:36.280Z,25.80
2019-01-25T15:50:47.367Z,28.95
2019-01-25T15:53:29.804Z,28.30
2019-01-25T15:59:33.513Z,27.93
2019-01-25T16:02:16.456Z,28.20
2019-01-25T16:08:35.461Z,26.95
2019-01-25T16:11:25.645Z,25.25
2019-01-25T16:14:08.880Z,30.00
2019-01-25T16:16:58.670Z,35.50
2019-01-25T16:19:41.359Z,33.00
2019-01-25T16:22:31.413Z,29.20
2019-01-25T16:25:17.996Z,28.32
2019-01-25T16:28:08.092Z,36.23
2019-01-25T16:30:50.823Z,32.03
2019-01-25T16:34:00.864Z,32.00
2019-01-25T16:36:45.739Z,29.25
2019-01-25T16:39:35.856Z,29.20
2019-01-25T16:42:18.501Z,29.37
2019-01-25T16:45:28.989Z,30.30
2019-01-25T16:48:13.119Z,27.90
2019-01-25T16:51:03.174Z,29.82
2019-01-25T16:53:46.213Z,28.00
2019-01-25T16:56:35.987Z,26.15
2019-01-25T16:59:18.960Z,29.02
2019-01-25T17:05:11.272Z,29.57
2019-01-25T17:08:01.358Z,28.00
2019-01-25T17:10:45.860Z,29.45
2019-01-25T17:13:36.244Z,30.45
2019-01-25T17:16:19.305Z,29.20
2019-01-25T17:19:09.447Z,31.07
2019-01-25T17:21:52.429Z,27.93
2019-01-25T17:24:42.555Z,32.38
2019-01-25T17:27:24.917Z,37.70
2019-01-25T17:30:35.728Z,32.08
2019-01-25T17:33:19.039Z,30.48
2019-01-25T17:39:14.059Z,30.35
2019-01-25T17:42:04.511Z,31.02
2019-01-25T17:44:47.082Z,31.15
2019-01-25T17:47:37.218Z,29.27
2019-01-25T17:50:19.583Z,28.27
2019-01-25T17:53:09.380Z,28.50
2019-01-25T17:55:52.651Z,29.75
2019-01-25T17:58:42.822Z,34.08
2019-01-25T18:01:25.552Z,30.55
2019-01-25T18:04:15.962Z,31.68
2019-01-25T18:06:59.073Z,29.32
2019-01-25T18:09:48.862Z,28.95
2019-01-25T18:12:31.194Z,29.65
2019-01-25T18:15:21.333Z,30.08
2019-01-25T18:18:03.920Z,32.73
2019-01-25T18:20:53.719Z,33.28
2019-01-25T18:23:37.020Z,30.92
2019-01-25T18:26:26.834Z,29.60
2019-01-25T18:29:11.142Z,29.70
2019-01-25T18:35:43.565Z,29.18
2019-01-25T18:38:33.900Z,27.65
2019-01-25T18:41:16.468Z,29.70
2019-01-25T18:44:06.314Z,31.85
2019-01-25T18:46:48.920Z,29.07
2019-01-25T18:49:38.712Z,28.77
2019-01-25T18:52:21.192Z,32.05
2019-01-25T18:55:30.662Z,30.05
2019-01-25T18:58:13.464Z,31.00
2019-01-25T19:01:03.571Z,31.73
2019-01-25T19:03:46.043Z,29.87
2019-01-25T19:10:30.486Z,27.25
2019-01-25T19:13:13.608Z,28.73
2019-01-25T19:16:03.421Z,37.98
2019-01-25T19:18:48.189Z,33.85
2019-01-25T19:21:38.020Z,30.27
2019-01-25T19:24:28.168Z,37.33
2019-01-25T19:27:37.339Z,33.67
2019-01-25T19:30:21.269Z,32.28
2019-01-25T19:33:11.465Z,31.90
2019-01-25T19:35:54.438Z,32.78
2019-01-25T19:38:44.238Z,30.00
2019-01-25T19:41:28.511Z,32.10
2019-01-25T19:44:18.872Z,32.73
2019-01-25T19:47:10.338Z,31.60
2019-01-25T19:49:53.025Z,28.73
2019-01-25T19:52:35.739Z,32.13
2019-01-25T19:55:47.341Z,27.85
2019-01-25T19:58:37.139Z,27.30
2019-01-25T20:01:21.461Z,27.32
2019-01-25T20:04:11.659Z,24.23
2019-01-25T20:06:56.581Z,24.47
2019-01-25T20:09:46.731Z,23.32
2019-01-25T20:12:27.480Z,20.80
2019-01-25T20:15:19.247Z,22.07
2019-01-25T20:18:03.702Z,20.95
2019-01-25T20:20:55.533Z,20.30
2019-01-25T20:23:38.552Z,19.90
2019-01-25T20:26:28.401Z,20.10
2019-01-25T20:29:11.462Z,21.45
2019-01-25T20:32:01.627Z,23.22
2019-01-25T20:34:46.680Z,19.27
2019-01-25T20:37:36.499Z,20.85
2019-01-25T20:40:26.575Z,19.10
2019-01-25T20:43:09.276Z,21.15
2019-01-25T20:45:59.690Z,19.42
2019-01-25T20:48:42.788Z,19.62
2019-01-25T20:51:32.886Z,19.15
2019-01-25T20:54:16.246Z,20.65
2019-01-25T20:56:58.763Z,20.00
2019-01-25T20:59:48.593Z,20.10
2019-01-25T21:05:40.343Z,20.02
2019-01-25T21:08:23.190Z,20.30
2019-01-25T21:11:13.322Z,20.97
2019-01-25T21:13:56.076Z,21.10
2019-01-25T21:17:04.989Z,22.70
2019-01-25T21:19:48.456Z,20.62
2019-01-25T21:22:38.296Z,22.42
2019-01-25T21:25:21.223Z,24.92
2019-01-25T21:28:11.294Z,22.37
2019-01-25T21:30:53.904Z,22.95
2019-01-25T21:33:43.707Z,22.25
2019-01-25T21:36:26.809Z,23.10
2019-01-25T21:39:16.654Z,22.02
2019-01-25T21:41:59.062Z,28.00
2019-01-25T21:44:49.131Z,25.43
2019-01-25T21:47:32.312Z,24.52
2019-01-25T21:50:43.123Z,24.45
2019-01-25T21:53:28.050Z,24.37
2019-01-25T21:56:17.846Z,23.50
2019-01-25T22:02:15.475Z,24.25
2019-01-25T22:05:26.617Z,21.87
2019-01-25T22:08:09.089Z,23.12
2019-01-25T22:10:58.962Z,23.52
2019-01-25T22:13:42.068Z,22.80
2019-01-25T22:16:24.771Z,22.95
2019-01-25T22:22:09.575Z,22.07
2019-01-25T22:24:59.416Z,23.80
2019-01-25T22:27:42.763Z,24.60
2019-01-25T22:30:32.592Z,22.75
2019-01-25T22:33:17.007Z,21.25
2019-01-25T22:35:59.488Z,21.00
2019-01-25T22:38:49.278Z,20.40
2019-01-25T22:41:32.657Z,21.85
2019-01-25T22:44:22.719Z,21.57
2019-01-25T22:47:05.826Z,22.13
2019-01-25T22:53:20.520Z,21.15
2019-01-25T22:56:10.663Z,22.98
2019-01-25T22:58:55.220Z,20.97
2019-01-25T23:01:45.722Z,20.20
2019-01-25T23:04:56.588Z,21.42
2019-01-25T23:07:39.601Z,20.55
2019-01-25T23:10:29.426Z,22.50
2019-01-25T23:13:13.744Z,22.02
2019-01-25T23:16:06.517Z,23.15
2019-01-25T23:18:55.397Z,21.52
2019-01-25T23:21:45.536Z,22.37
2019-01-25T23:24:28.713Z,20.90
2019-01-25T23:30:33.661Z,22.45
2019-01-25T23:33:17.970Z,21.05
2019-01-25T23:36:08.058Z,22.65
2019-01-25T23:38:58.125Z,24.60
2019-01-25T23:41:40.742Z,22.82
2019-01-25T23:44:30.781Z,24.50
2019-01-25T23:47:13.625Z,22.10
2019-01-25T23:53:33.113Z,22.82
2019-01-25T23:56:22.937Z,26.77
2019-01-25T23:59:05.350Z,25.20
